Time;durP1;ratioP1;P1;durP2;ratioP2;P2;SDS_P1;SDS_P2;PMS_P1;PMS_P2;Temp;Humidity;BMP_temperature;BMP_pressure;BME280_temperature;BME280_humidity;BME280_pressure;Samples;Min_cycle;Max_cycle;Signal;HPM_P1;HPM_P2
2022/03/10 00:00:45;;;;;;;30.50;18.80;;;2.50;99.90;;;;;;5074782;28;20211;-68
2022/03/10 00:03:11;;;;;;;30.95;20.77;;;2.60;99.90;;;;;;5057598;28;20593;-66
2022/03/10 00:05:38;;;;;;;28.60;19.60;;;2.50;99.90;;;;;;5075037;28;20239;-67
2022/03/10 00:08:05;;;;;;;28.20;19.90;;;2.50;99.90;;;;;;5075323;28;20345;-66
2022/03/10 00:10:31;;;;;;;34.45;19.90;;;2.60;99.90;;;;;;5075301;28;20204;-66
2022/03/10 00:12:58;;;;;;;32.40;18.90;;;2.70;99.90;;;;;;5075842;28;20257;-67
2022/03/10 00:15:24;;;;;;;28.35;19.20;;;2.70;99.90;;;;;;5075610;28;20203;-67
2022/03/10 00:17:52;;;;;;;30.73;19.77;;;2.70;99.90;;;;;;5075970;28;20603;-66
2022/03/10 00:20:19;;;;;;;29.48;18.55;;;2.60;99.90;;;;;;5075937;28;20223;-66
2022/03/10 00:22:56;;;;;;;28.33;19.30;;;2.50;99.90;;;;;;5076085;28;20204;-68
2022/03/10 00:25:22;;;;;;;28.02;18.48;;;2.40;99.90;;;;;;5076603;28;20222;-68
2022/03/10 00:27:49;;;;;;;30.05;18.77;;;2.40;99.90;;;;;;5075384;28;20268;-68
2022/03/10 00:30:15;;;;;;;29.15;19.75;;;2.50;99.90;;;;;;5075988;28;20206;-68
2022/03/10 00:32:50;;;;;;;26.27;20.08;;;2.50;99.90;;;;;;5073821;28;20241;-69
2022/03/10 00:35:21;;;;;;;28.08;18.27;;;2.50;99.90;;;;;;5074672;28;20206;-68
2022/03/10 00:37:48;;;;;;;29.02;17.70;;;2.50;99.90;;;;;;5075430;28;20198;-68
2022/03/10 00:40:16;;;;;;;31.27;19.65;;;2.50;99.90;;;;;;5075308;28;20210;-69
2022/03/10 00:42:43;;;;;;;28.48;17.63;;;2.40;99.90;;;;;;5073962;28;20670;-68
2022/03/10 00:45:11;;;;;;;28.20;18.30;;;2.30;99.90;;;;;;5075331;28;20233;-68
2022/03/10 00:47:38;;;;;;;32.13;19.45;;;2.30;99.90;;;;;;5075419;28;20199;-68
2022/03/10 00:50:06;;;;;;;29.65;18.55;;;2.30;99.90;;;;;;5074615;28;20209;-68
2022/03/10 00:52:32;;;;;;;26.88;18.63;;;2.20;99.90;;;;;;5074843;28;20223;-70
2022/03/10 00:54:59;;;;;;;31.30;18.60;;;2.10;99.90;;;;;;5075118;28;20667;-70
2022/03/10 00:57:25;;;;;;;28.67;18.92;;;2.10;99.90;;;;;;5075617;28;20211;-68
2022/03/10 00:59:52;;;;;;;29.00;18.25;;;2.10;99.90;;;;;;5079730;28;20203;-69
2022/03/10 01:02:18;;;;;;;23.60;18.08;;;2.10;99.90;;;;;;5078982;28;20256;-68
2022/03/10 01:04:45;;;;;;;29.65;18.80;;;2.00;99.90;;;;;;5077397;28;20210;-67
2022/03/10 01:07:11;;;;;;;26.95;18.75;;;2.00;99.90;;;;;;5078834;28;20610;-67
2022/03/10 01:09:38;;;;;;;29.20;20.90;;;2.00;99.90;;;;;;5079569;28;20208;-67
2022/03/10 01:12:05;;;;;;;28.45;19.20;;;1.90;99.90;;;;;;5079655;28;20695;-67
2022/03/10 01:14:31;;;;;;;28.98;18.92;;;1.80;99.90;;;;;;5078656;28;20724;-67
2022/03/10 01:16:58;;;;;;;25.10;17.98;;;1.70;99.90;;;;;;5078821;28;20195;-67
2022/03/10 01:19:24;;;;;;;27.00;19.80;;;1.70;99.90;;;;;;5078784;28;20188;-67
2022/03/10 01:21:51;;;;;;;28.00;17.90;;;1.70;99.90;;;;;;5078533;28;20272;-67
2022/03/10 01:24:17;;;;;;;29.60;18.35;;;1.70;99.90;;;;;;5079165;28;20270;-67
2022/03/10 01:26:43;;;;;;;27.45;18.58;;;1.80;99.90;;;;;;5078384;28;20222;-67
2022/03/10 01:29:13;;;;;;;29.67;17.10;;;1.80;99.90;;;;;;5078784;28;20207;-67
2022/03/10 01:31:39;;;;;;;33.05;19.20;;;1.70;99.90;;;;;;5077785;28;20216;-67
2022/03/10 01:34:06;;;;;;;25.73;18.35;;;1.70;99.90;;;;;;5079204;28;20203;-67
2022/03/10 01:36:32;;;;;;;27.17;18.40;;;1.60;99.90;;;;;;5078755;28;20656;-67
2022/03/10 01:39:03;;;;;;;25.13;18.30;;;1.70;99.90;;;;;;5078200;28;20196;-67
2022/03/10 01:41:29;;;;;;;30.23;19.08;;;1.60;99.90;;;;;;5079089;28;20231;-68
2022/03/10 01:43:57;;;;;;;32.22;19.20;;;1.60;99.90;;;;;;5078569;28;20207;-68
2022/03/10 01:46:24;;;;;;;28.65;17.90;;;1.60;99.90;;;;;;5078446;28;20196;-68
2022/03/10 01:48:51;;;;;;;24.58;16.33;;;1.50;99.90;;;;;;5077206;28;20207;-68
2022/03/10 01:51:17;;;;;;;24.65;17.33;;;1.50;99.90;;;;;;5078493;28;20204;-69
2022/03/10 01:53:44;;;;;;;25.13;17.88;;;1.50;99.90;;;;;;5077901;28;20238;-69
2022/03/10 01:56:11;;;;;;;27.13;16.67;;;1.50;99.90;;;;;;5077240;28;20211;-68
2022/03/10 01:58:38;;;;;;;25.80;16.48;;;1.40;99.90;;;;;;5077332;28;20200;-69
2022/03/10 02:01:05;;;;;;;26.25;17.83;;;1.40;99.90;;;;;;5077532;28;20208;-69
2022/03/10 02:03:31;;;;;;;26.38;17.83;;;1.50;99.90;;;;;;5076413;28;20253;-69
2022/03/10 02:05:57;;;;;;;24.98;17.17;;;1.50;99.90;;;;;;5076264;28;20730;-69
2022/03/10 02:11:09;;;;;;;27.58;17.65;;;1.60;99.90;;;;;;5076764;28;20196;-69
2022/03/10 02:13:35;;;;;;;27.70;17.35;;;1.60;99.90;;;;;;5076538;28;20578;-69
2022/03/10 02:18:46;;;;;;;28.40;17.38;;;1.50;99.90;;;;;;5075653;28;20195;-68
2022/03/10 02:21:14;;;;;;;25.08;17.33;;;1.50;99.90;;;;;;5076480;28;20208;-68
2022/03/10 02:23:40;;;;;;;26.98;16.23;;;1.50;99.90;;;;;;5076459;28;20712;-68
2022/03/10 02:26:08;;;;;;;26.42;17.02;;;1.50;99.90;;;;;;5076317;28;20204;-68
2022/03/10 02:28:35;;;;;;;28.85;16.27;;;1.40;99.90;;;;;;5076824;28;20210;-68
2022/03/10 02:31:01;;;;;;;23.05;16.65;;;1.40;99.90;;;;;;5076530;28;20257;-67
2022/03/10 02:33:28;;;;;;;26.20;16.02;;;1.30;99.90;;;;;;5075251;28;20216;-68
2022/03/10 02:35:54;;;;;;;26.55;16.67;;;1.20;99.90;;;;;;5075083;28;20681;-68
2022/03/10 02:38:21;;;;;;;34.60;17.65;;;1.10;99.90;;;;;;5076096;28;20203;-69
2022/03/10 02:40:48;;;;;;;26.15;17.95;;;1.10;99.90;;;;;;5076323;28;20569;-69
2022/03/10 02:43:15;;;;;;;28.83;18.88;;;1.20;99.90;;;;;;5076089;28;20204;-68
2022/03/10 02:45:41;;;;;;;25.50;16.60;;;1.10;99.90;;;;;;5075358;28;20192;-69
2022/03/10 02:48:08;;;;;;;29.38;18.25;;;1.10;99.90;;;;;;5075611;28;20196;-69
2022/03/10 02:50:34;;;;;;;23.75;16.73;;;1.10;99.90;;;;;;5075998;28;20538;-67
2022/03/10 02:53:01;;;;;;;29.90;17.23;;;1.20;99.90;;;;;;5075985;28;20227;-67
2022/03/10 02:55:28;;;;;;;30.05;18.33;;;1.20;99.90;;;;;;5076729;28;20196;-67
2022/03/10 02:57:54;;;;;;;34.38;20.00;;;1.30;99.90;;;;;;5076707;28;20204;-67
2022/03/10 03:00:21;;;;;;;34.60;20.05;;;1.30;99.90;;;;;;5076041;28;20199;-67
2022/03/10 03:02:47;;;;;;;32.63;19.55;;;1.20;99.90;;;;;;5076079;28;20231;-67
2022/03/10 03:05:14;;;;;;;25.60;16.65;;;1.10;99.90;;;;;;5075529;28;20584;-66
2022/03/10 03:07:42;;;;;;;26.98;18.17;;;1.10;99.90;;;;;;5075654;28;20570;-65
2022/03/10 03:10:08;;;;;;;28.70;17.92;;;1.00;99.90;;;;;;5076129;28;20239;-66
2022/03/10 03:12:50;;;;;;;23.35;16.65;;;1.10;99.90;;;;;;5076155;28;20220;-66
2022/03/10 03:15:17;;;;;;;28.80;16.95;;;1.10;99.90;;;;;;5076224;28;20199;-66
2022/03/10 03:17:44;;;;;;;33.42;17.13;;;1.10;99.90;;;;;;5076096;28;20207;-65
2022/03/10 03:20:14;;;;;;;23.40;16.25;;;1.00;99.90;;;;;;5073678;28;20199;-66
2022/03/10 03:22:42;;;;;;;33.67;18.90;;;1.10;99.90;;;;;;5076475;28;20207;-66
2022/03/10 03:25:17;;;;;;;34.33;18.23;;;1.10;99.90;;;;;;5076156;28;20196;-66
2022/03/10 03:27:44;;;;;;;29.98;17.67;;;1.10;99.90;;;;;;5076589;28;20204;-66
2022/03/10 03:30:11;;;;;;;29.23;17.20;;;1.10;99.90;;;;;;5074308;28;20204;-66
2022/03/10 03:32:37;;;;;;;33.88;17.40;;;1.10;99.90;;;;;;5073806;28;20220;-67
2022/03/10 03:35:04;;;;;;;29.42;18.10;;;1.00;99.90;;;;;;5075058;28;20191;-66
2022/03/10 03:37:30;;;;;;;32.60;19.92;;;1.00;99.90;;;;;;5075871;28;20196;-66
2022/03/10 03:39:57;;;;;;;29.75;20.60;;;1.00;99.90;;;;;;5058145;28;20195;-66
2022/03/10 03:42:24;;;;;;;30.00;20.40;;;0.90;99.90;;;;;;5076641;28;20203;-66
2022/03/10 03:44:50;;;;;;;33.08;18.75;;;0.80;99.90;;;;;;5074687;28;20212;-66
2022/03/10 03:47:16;;;;;;;29.60;19.23;;;0.70;99.90;;;;;;5074095;28;20204;-66
2022/03/10 03:49:43;;;;;;;22.80;15.35;;;0.70;99.90;;;;;;5074916;28;20269;-66
2022/03/10 03:52:09;;;;;;;27.80;18.83;;;0.60;99.90;;;;;;5074498;28;20224;-68
2022/03/10 03:54:36;;;;;;;23.45;16.77;;;0.60;99.90;;;;;;5075131;28;20590;-68
2022/03/10 03:57:02;;;;;;;33.38;18.80;;;0.70;99.90;;;;;;5074613;28;20203;-68
2022/03/10 03:59:29;;;;;;;30.52;17.55;;;0.60;99.90;;;;;;5075473;28;20231;-67
2022/03/10 04:01:55;;;;;;;31.08;18.63;;;0.70;99.90;;;;;;5074701;28;20664;-67
2022/03/10 04:04:22;;;;;;;25.92;15.57;;;0.70;99.90;;;;;;5073628;28;20206;-67
2022/03/10 04:06:49;;;;;;;25.95;17.02;;;0.70;99.90;;;;;;5074891;28;20235;-68
2022/03/10 04:09:16;;;;;;;25.60;16.15;;;0.80;99.90;;;;;;5074155;28;20663;-66
2022/03/10 04:11:42;;;;;;;25.52;15.38;;;0.80;99.90;;;;;;5074121;28;20203;-66
2022/03/10 04:14:11;;;;;;;27.70;16.40;;;0.80;99.90;;;;;;5075179;28;20231;-67
2022/03/10 04:16:38;;;;;;;26.80;17.67;;;0.80;99.90;;;;;;5074740;28;20207;-67
2022/03/10 04:19:05;;;;;;;24.88;16.50;;;0.90;99.90;;;;;;5074887;28;20203;-67
2022/03/10 04:21:32;;;;;;;24.92;15.40;;;1.00;99.90;;;;;;5075029;28;20199;-67
2022/03/10 04:23:58;;;;;;;36.67;18.27;;;1.00;99.90;;;;;;5074595;28;20538;-68
2022/03/10 04:26:25;;;;;;;23.58;16.48;;;1.00;99.90;;;;;;5074380;28;20652;-69
2022/03/10 04:28:51;;;;;;;25.73;16.45;;;0.90;99.90;;;;;;5074600;28;20309;-68
2022/03/10 04:31:17;;;;;;;28.45;17.63;;;0.90;99.90;;;;;;5074945;28;20204;-68
2022/03/10 04:33:44;;;;;;;26.27;16.85;;;0.80;99.90;;;;;;5074412;28;20216;-68
2022/03/10 04:36:10;;;;;;;27.48;17.85;;;0.70;99.90;;;;;;5074746;28;20651;-68
2022/03/10 04:38:36;;;;;;;26.80;16.92;;;0.60;99.90;;;;;;5074685;28;20196;-68
2022/03/10 04:41:03;;;;;;;29.42;18.63;;;0.40;99.90;;;;;;5074716;28;20198;-68
2022/03/10 04:43:29;;;;;;;31.90;17.20;;;0.20;99.90;;;;;;5074627;28;20206;-68
2022/03/10 04:45:55;;;;;;;26.42;16.52;;;0.10;99.90;;;;;;5074150;28;20204;-68
2022/03/10 04:48:21;;;;;;;28.33;16.95;;;0.10;99.90;;;;;;5073972;28;20204;-68
2022/03/10 04:50:48;;;;;;;25.73;19.42;;;0.00;99.90;;;;;;5074647;28;20655;-68
2022/03/10 04:53:14;;;;;;;33.60;19.27;;;0.00;99.90;;;;;;5074396;28;20223;-68
2022/03/10 04:55:41;;;;;;;29.48;18.13;;;0.00;99.90;;;;;;5073826;28;20200;-68
2022/03/10 04:58:08;;;;;;;26.88;17.10;;;0.00;99.90;;;;;;5073321;28;20211;-68
2022/03/10 05:00:35;;;;;;;25.15;15.35;;;-0.10;99.90;;;;;;5074347;28;20211;-68
2022/03/10 05:03:01;;;;;;;26.45;16.90;;;-0.10;99.90;;;;;;5073452;28;20207;-69
2022/03/10 05:05:27;;;;;;;23.80;16.95;;;-0.20;99.90;;;;;;5073542;28;20242;-69
2022/03/10 05:07:54;;;;;;;24.75;17.05;;;-0.20;99.90;;;;;;5073640;28;20235;-68
2022/03/10 05:10:20;;;;;;;39.38;16.85;;;-0.20;99.90;;;;;;5074001;28;20210;-69
2022/03/10 05:12:48;;;;;;;28.95;17.17;;;-0.20;99.90;;;;;;5073592;28;20227;-68
2022/03/10 05:15:18;;;;;;;32.88;17.25;;;-0.20;99.90;;;;;;5073619;28;20200;-68
2022/03/10 05:17:45;;;;;;;35.33;17.98;;;-0.20;99.90;;;;;;5074178;28;20213;-69
2022/03/10 05:20:11;;;;;;;35.22;19.15;;;-0.20;99.90;;;;;;5073462;28;20230;-68
2022/03/10 05:22:45;;;;;;;39.90;17.73;;;-0.20;99.90;;;;;;5073952;28;20245;-68
2022/03/10 05:25:13;;;;;;;30.83;16.77;;;0.00;99.90;;;;;;5073956;28;20208;-68
2022/03/10 05:27:40;;;;;;;28.95;16.48;;;0.20;99.90;;;;;;5075069;28;20196;-68
2022/03/10 05:30:07;;;;;;;24.23;15.30;;;0.30;99.90;;;;;;5074418;28;20668;-69
2022/03/10 05:32:34;;;;;;;31.38;15.57;;;0.30;99.90;;;;;;5075044;28;20760;-68
2022/03/10 05:35:01;;;;;;;27.67;16.52;;;0.40;99.90;;;;;;5074088;28;20219;-68
2022/03/10 05:37:27;;;;;;;22.75;14.30;;;0.40;99.90;;;;;;5074011;28;20196;-68
2022/03/10 05:39:54;;;;;;;22.15;15.57;;;0.40;99.90;;;;;;5075246;28;20200;-68
2022/03/10 05:42:20;;;;;;;32.17;15.25;;;0.50;99.90;;;;;;5075396;28;20208;-68
2022/03/10 05:44:47;;;;;;;30.58;15.18;;;0.60;99.90;;;;;;5077841;28;20204;-68
2022/03/10 05:47:13;;;;;;;25.10;15.50;;;0.70;99.90;;;;;;5078306;28;20204;-68
2022/03/10 05:49:40;;;;;;;23.08;15.07;;;0.80;99.90;;;;;;5078725;28;20261;-68
2022/03/10 05:52:06;;;;;;;21.92;13.30;;;0.90;99.90;;;;;;5079162;28;20200;-69
2022/03/10 05:54:33;;;;;;;23.45;14.80;;;1.00;99.90;;;;;;5077516;28;20230;-68
2022/03/10 05:56:59;;;;;;;39.08;17.10;;;1.10;99.90;;;;;;5077532;28;20204;-68
2022/03/10 05:59:26;;;;;;;28.92;14.43;;;1.10;99.90;;;;;;5077723;28;20200;-68
2022/03/10 06:01:52;;;;;;;24.27;14.77;;;1.20;99.90;;;;;;5078074;28;20675;-68
2022/03/10 06:04:19;;;;;;;18.98;14.32;;;1.10;99.90;;;;;;5077540;28;20274;-68
2022/03/10 06:06:46;;;;;;;17.98;13.25;;;1.10;99.90;;;;;;5078468;28;20666;-68
2022/03/10 06:09:12;;;;;;;26.35;14.90;;;1.10;99.90;;;;;;5077970;28;20207;-68
2022/03/10 06:11:39;;;;;;;24.73;15.40;;;1.00;99.90;;;;;;5079251;28;20200;-68
2022/03/10 06:14:05;;;;;;;20.88;14.40;;;1.00;99.90;;;;;;5079235;28;20691;-68
2022/03/10 06:16:32;;;;;;;31.63;15.43;;;1.00;99.90;;;;;;5078983;28;20203;-68
2022/03/10 06:19:02;;;;;;;23.33;13.55;;;0.90;99.90;;;;;;5080090;28;20207;-68
2022/03/10 06:21:33;;;;;;;27.23;16.00;;;0.80;99.90;;;;;;5079574;28;20188;-68
2022/03/10 06:24:00;;;;;;;29.15;15.73;;;0.70;99.90;;;;;;5078402;28;20227;-68
2022/03/10 06:26:26;;;;;;;41.65;16.35;;;0.70;99.90;;;;;;5078543;28;20215;-68
2022/03/10 06:28:53;;;;;;;27.90;13.90;;;0.70;99.90;;;;;;5078954;28;20209;-68
2022/03/10 06:31:19;;;;;;;23.80;16.13;;;0.70;99.90;;;;;;5079812;28;20204;-68
2022/03/10 06:33:46;;;;;;;28.85;13.95;;;0.80;99.90;;;;;;5078725;28;20687;-68
2022/03/10 06:36:12;;;;;;;26.67;16.60;;;0.80;99.90;;;;;;5079043;28;20606;-67
2022/03/10 06:38:39;;;;;;;24.45;14.07;;;0.90;99.90;;;;;;5078693;28;20203;-67
2022/03/10 06:41:07;;;;;;;25.55;16.05;;;0.90;99.90;;;;;;5078252;28;20200;-67
2022/03/10 06:43:33;;;;;;;37.78;18.17;;;0.90;99.90;;;;;;5078707;28;20282;-68
2022/03/10 06:45:59;;;;;;;28.63;16.40;;;1.00;99.90;;;;;;5078384;28;20208;-67
2022/03/10 06:48:26;;;;;;;29.45;17.95;;;1.00;99.90;;;;;;5078840;28;20200;-67
2022/03/10 06:50:52;;;;;;;31.95;18.25;;;1.10;99.90;;;;;;5076019;28;21426;-67
2022/03/10 06:53:19;;;;;;;30.80;16.58;;;1.20;99.90;;;;;;5075541;28;20220;-67
2022/03/10 06:55:45;;;;;;;25.88;16.80;;;1.30;99.90;;;;;;5073903;28;20211;-67
2022/03/10 06:58:12;;;;;;;25.65;16.38;;;1.40;99.90;;;;;;5076587;28;20200;-68
2022/03/10 07:00:38;;;;;;;27.35;16.52;;;1.50;99.90;;;;;;5076077;28;20204;-67
2022/03/10 07:03:05;;;;;;;26.48;16.20;;;1.50;99.90;;;;;;5076209;28;20227;-67
2022/03/10 07:05:31;;;;;;;26.88;16.40;;;1.60;99.90;;;;;;5074774;28;20246;-67
2022/03/10 07:07:58;;;;;;;23.67;15.40;;;1.70;99.90;;;;;;5075571;28;20211;-67
2022/03/10 07:10:25;;;;;;;25.52;14.25;;;1.80;99.90;;;;;;5075321;28;20203;-68
2022/03/10 07:12:51;;;;;;;22.55;15.70;;;2.00;99.90;;;;;;5076953;28;20675;-69
2022/03/10 07:15:18;;;;;;;24.48;15.55;;;2.10;99.90;;;;;;5076108;28;20196;-69
2022/03/10 07:17:44;;;;;;;28.58;15.63;;;2.20;99.90;;;;;;5076236;28;20230;-69
2022/03/10 07:20:14;;;;;;;24.67;15.00;;;2.30;99.90;;;;;;5076211;28;20254;-70
2022/03/10 07:22:40;;;;;;;25.95;16.50;;;2.40;99.90;;;;;;5076250;28;20219;-70
2022/03/10 07:25:11;;;;;;;24.55;16.50;;;2.50;99.90;;;;;;5076098;28;20192;-70
2022/03/10 07:27:38;;;;;;;21.55;15.57;;;2.60;99.90;;;;;;5076587;28;20200;-70
2022/03/10 07:30:05;;;;;;;25.63;15.15;;;2.80;99.90;;;;;;5076457;28;20211;-70
2022/03/10 07:32:33;;;;;;;25.40;16.58;;;2.90;99.90;;;;;;5075773;28;20208;-70
2022/03/10 07:35:00;;;;;;;27.13;17.48;;;2.90;99.90;;;;;;5076527;28;20232;-70
2022/03/10 07:37:27;;;;;;;24.60;15.77;;;2.90;99.90;;;;;;5077134;28;20200;-70
2022/03/10 07:39:53;;;;;;;24.50;16.70;;;3.00;99.90;;;;;;5076036;28;20549;-70
2022/03/10 07:42:20;;;;;;;25.00;16.73;;;3.20;99.90;;;;;;5075887;28;20207;-70
2022/03/10 07:44:46;;;;;;;21.67;15.50;;;3.30;99.90;;;;;;5076026;28;20211;-70
2022/03/10 07:47:12;;;;;;;25.70;15.85;;;3.40;99.90;;;;;;5073917;28;20207;-69
2022/03/10 07:49:39;;;;;;;23.85;15.25;;;3.40;99.90;;;;;;5075560;28;20208;-69
2022/03/10 07:52:07;;;;;;;19.33;14.05;;;3.40;99.90;;;;;;5075170;28;20207;-69
2022/03/10 07:54:34;;;;;;;22.30;14.77;;;3.60;99.90;;;;;;5075272;28;20219;-70
2022/03/10 07:57:00;;;;;;;23.45;14.93;;;3.70;99.90;;;;;;5076102;28;20545;-69
2022/03/10 07:59:27;;;;;;;23.88;14.68;;;3.90;99.90;;;;;;5075905;28;20196;-70
2022/03/10 08:01:55;;;;;;;18.17;14.23;;;4.10;99.90;;;;;;5075036;28;20202;-70
2022/03/10 08:04:22;;;;;;;21.23;14.80;;;4.20;99.90;;;;;;5075029;28;20298;-70
2022/03/10 08:06:48;;;;;;;22.08;13.90;;;4.30;99.90;;;;;;5074319;28;20232;-70
2022/03/10 08:09:14;;;;;;;23.67;12.90;;;4.50;99.90;;;;;;5074884;28;20199;-70
2022/03/10 08:11:41;;;;;;;21.77;14.45;;;4.60;99.90;;;;;;5074585;28;20207;-70
2022/03/10 08:14:07;;;;;;;18.60;13.60;;;4.70;99.90;;;;;;5074048;28;20764;-70
2022/03/10 08:16:34;;;;;;;18.00;14.10;;;4.70;99.90;;;;;;5073946;28;20211;-69
2022/03/10 08:19:01;;;;;;;37.78;15.45;;;4.80;99.90;;;;;;5074240;28;20196;-69
2022/03/10 08:21:27;;;;;;;22.45;15.15;;;4.90;99.90;;;;;;5074426;28;20691;-70
2022/03/10 08:23:54;;;;;;;18.13;14.00;;;5.10;99.90;;;;;;5056569;28;20203;-69
2022/03/10 08:26:20;;;;;;;21.50;15.20;;;5.10;99.90;;;;;;5074848;28;20651;-69
2022/03/10 08:28:51;;;;;;;18.42;14.40;;;5.10;99.90;;;;;;5074518;28;20235;-70
2022/03/10 08:31:18;;;;;;;19.60;15.00;;;5.30;99.90;;;;;;5074927;28;20552;-70
2022/03/10 08:33:45;;;;;;;22.33;15.25;;;5.50;99.90;;;;;;5073905;28;20228;-70
2022/03/10 08:36:12;;;;;;;18.73;13.55;;;5.50;99.90;;;;;;5074525;28;20223;-69
2022/03/10 08:38:38;;;;;;;22.02;15.50;;;5.70;99.90;;;;;;5074313;28;20226;-68
2022/03/10 08:41:05;;;;;;;20.92;15.40;;;5.80;99.90;;;;;;5074475;28;20208;-68
2022/03/10 08:43:32;;;;;;;18.55;14.25;;;5.90;99.90;;;;;;5074629;28;20233;-69
2022/03/10 08:46:01;;;;;;;18.42;14.50;;;6.00;99.90;;;;;;5074231;28;20230;-68
2022/03/10 08:48:28;;;;;;;19.02;14.13;;;6.10;99.90;;;;;;5073011;28;20211;-68
2022/03/10 08:50:54;;;;;;;21.35;14.35;;;6.20;99.90;;;;;;5073512;28;20261;-68
2022/03/10 08:53:21;;;;;;;19.38;14.35;;;6.30;99.90;;;;;;5073637;28;20240;-68
2022/03/10 08:55:47;;;;;;;17.45;14.30;;;6.30;99.90;;;;;;5073898;28;20205;-67
2022/03/10 08:58:13;;;;;;;20.70;14.10;;;6.30;99.90;;;;;;5073958;28;20191;-69
2022/03/10 09:00:40;;;;;;;17.88;14.00;;;6.50;99.90;;;;;;5073856;28;20204;-67
2022/03/10 09:03:07;;;;;;;15.52;13.13;;;6.60;99.90;;;;;;5074370;28;20196;-68
2022/03/10 09:05:36;;;;;;;20.25;15.20;;;6.80;99.90;;;;;;5073334;28;20231;-68
2022/03/10 09:08:02;;;;;;;21.50;14.80;;;6.80;99.90;;;;;;5073592;28;20207;-68
2022/03/10 09:10:29;;;;;;;19.02;14.80;;;6.90;99.90;;;;;;5073805;28;20200;-68
2022/03/10 09:12:56;;;;;;;18.10;14.85;;;7.10;99.90;;;;;;5073665;28;20200;-68
2022/03/10 09:15:23;;;;;;;24.75;16.05;;;7.30;99.90;;;;;;5073886;28;20192;-68
2022/03/10 09:17:49;;;;;;;20.00;14.48;;;7.30;99.90;;;;;;5074580;28;20195;-68
2022/03/10 09:20:16;;;;;;;21.05;15.73;;;7.30;99.90;;;;;;5077885;28;20195;-68
2022/03/10 09:22:42;;;;;;;19.90;14.90;;;7.40;99.90;;;;;;5077636;28;20200;-67
2022/03/10 09:25:09;;;;;;;25.17;16.30;;;7.60;99.90;;;;;;5077741;28;20270;-68
2022/03/10 09:27:37;;;;;;;21.52;15.60;;;7.80;99.90;;;;;;5077789;28;20242;-71
2022/03/10 09:30:05;;;;;;;21.63;14.10;;;7.90;99.90;;;;;;5076722;28;20204;-68
2022/03/10 09:32:43;;;;;;;16.50;14.30;;;8.10;99.90;;;;;;5076984;28;20660;-69
2022/03/10 09:35:12;;;;;;;19.05;14.32;;;8.30;99.90;;;;;;5077255;28;20309;-69
2022/03/10 09:37:39;;;;;;;18.15;14.35;;;8.30;99.90;;;;;;5079174;28;20678;-69
2022/03/10 09:40:07;;;;;;;22.85;13.68;;;8.30;99.90;;;;;;5077844;28;20594;-69
2022/03/10 09:42:34;;;;;;;17.00;14.23;;;8.40;99.90;;;;;;5077733;28;20203;-69
2022/03/10 09:45:10;;;;;;;28.77;15.30;;;8.50;99.90;;;;;;5075885;28;20208;-69
2022/03/10 09:47:38;;;;;;;16.27;14.20;;;8.60;99.90;;;;;;5078655;28;20194;-69
2022/03/10 09:50:10;;;;;;;18.55;13.82;;;8.60;99.90;;;;;;5076634;28;20289;-69
2022/03/10 09:52:36;;;;;;;18.13;15.18;;;8.80;99.90;;;;;;5077637;28;20208;-69
2022/03/10 09:55:04;;;;;;;19.70;14.50;;;9.00;99.90;;;;;;5077002;28;20216;-69
2022/03/10 09:57:33;;;;;;;18.67;14.93;;;9.10;99.90;;;;;;5076559;28;20204;-68
2022/03/10 09:59:59;;;;;;;18.65;14.40;;;9.40;99.90;;;;;;5077406;28;20207;-68
2022/03/10 10:02:27;;;;;;;22.48;15.73;;;9.50;99.90;;;;;;5076075;28;20265;-68
2022/03/10 10:04:56;;;;;;;15.52;14.00;;;9.50;99.90;;;;;;5076017;28;20210;-68
2022/03/10 10:07:29;;;;;;;15.00;13.50;;;9.80;99.90;;;;;;5077565;28;20274;-68
2022/03/10 10:09:57;;;;;;;20.90;13.93;;;10.00;99.90;;;;;;5077916;28;20207;-69
2022/03/10 10:12:31;;;;;;;22.05;14.93;;;10.00;99.90;;;;;;5075941;28;20204;-68
2022/03/10 10:14:58;;;;;;;19.40;14.27;;;10.20;99.90;;;;;;5077444;28;20223;-68
2022/03/10 10:17:30;;;;;;;16.35;14.02;;;10.40;99.90;;;;;;5075492;28;20263;-69
2022/03/10 10:19:59;;;;;;;16.33;13.48;;;10.50;99.90;;;;;;5076869;28;20237;-69
2022/03/10 10:22:27;;;;;;;15.13;13.52;;;10.60;99.90;;;;;;5077119;28;20196;-69
2022/03/10 10:25:02;;;;;;;20.33;14.70;;;10.70;99.90;;;;;;5076880;28;20200;-68
2022/03/10 10:27:34;;;;;;;14.18;12.77;;;10.80;99.90;;;;;;5077459;28;20199;-68
2022/03/10 10:30:04;;;;;;;17.38;13.05;;;10.80;99.90;;;;;;5076147;28;20603;-68
2022/03/10 10:32:43;;;;;;;15.02;12.73;;;11.00;99.90;;;;;;5076345;28;20196;-68
2022/03/10 10:35:13;;;;;;;16.83;13.15;;;11.20;99.90;;;;;;5076201;28;20219;-68
2022/03/10 10:37:47;;;;;;;13.00;11.65;;;11.20;99.90;;;;;;5077200;28;20200;-68
2022/03/10 10:40:20;;;;;;;13.20;11.85;;;11.60;99.90;;;;;;5076577;28;20206;-68
2022/03/10 10:42:47;;;;;;;13.65;12.30;;;11.80;99.90;;;;;;5077071;28;20200;-68
2022/03/10 10:45:27;;;;;;;14.05;12.55;;;12.00;99.90;;;;;;5076350;28;20716;-68
2022/03/10 10:48:04;;;;;;;14.98;11.93;;;12.30;99.90;;;;;;5076730;28;20204;-68
2022/03/10 10:50:32;;;;;;;13.73;12.43;;;12.30;99.90;;;;;;5076193;28;20215;-69
2022/03/10 10:52:59;;;;;;;16.23;12.80;;;12.40;99.90;;;;;;5075138;28;20575;-68
2022/03/10 10:55:33;;;;;;;13.50;12.18;;;12.40;99.90;;;;;;5076047;28;20654;-68
2022/03/10 10:58:13;;;;;;;14.63;13.10;;;12.40;99.90;;;;;;5076742;28;20206;-68
2022/03/10 11:00:46;;;;;;;15.80;12.07;;;12.70;99.90;;;;;;5075834;28;21083;-68
2022/03/10 11:03:20;;;;;;;13.50;11.83;;;12.70;99.90;;;;;;5076421;28;20678;-68
2022/03/10 11:05:48;;;;;;;18.40;11.80;;;12.70;99.90;;;;;;5075859;28;20636;-68
2022/03/10 11:08:17;;;;;;;13.23;11.93;;;13.00;99.90;;;;;;5075675;28;20606;-70
2022/03/10 11:10:43;;;;;;;23.80;13.20;;;13.20;99.90;;;;;;5075415;28;20577;-70
2022/03/10 11:13:10;;;;;;;15.27;11.97;;;13.30;99.90;;;;;;5075189;28;21009;-70
2022/03/10 11:15:38;;;;;;;17.03;11.83;;;13.70;99.90;;;;;;5075149;28;20666;-70
2022/03/10 11:18:04;;;;;;;12.67;10.83;;;14.50;99.90;;;;;;5075297;28;20674;-71
2022/03/10 11:20:34;;;;;;;13.20;11.90;;;15.00;99.90;;;;;;5074914;28;20614;-70
2022/03/10 11:23:28;;;;;;;12.90;10.70;;;15.20;99.90;;;;;;5075376;28;20992;-70
2022/03/10 11:26:19;;;;;;;12.53;11.40;;;15.40;99.90;;;;;;5074907;28;20598;-71
2022/03/10 11:28:47;;;;;;;15.93;11.47;;;15.60;99.90;;;;;;5075076;28;20624;-70
2022/03/10 11:31:14;;;;;;;12.83;11.73;;;15.60;99.90;;;;;;5074948;28;20603;-70
2022/03/10 11:33:41;;;;;;;13.40;12.10;;;16.00;99.90;;;;;;5073226;28;20615;-69
2022/03/10 11:36:23;;;;;;;16.07;12.47;;;16.20;99.90;;;;;;5074656;28;20606;-69
2022/03/10 11:38:54;;;;;;;12.77;11.40;;;16.30;99.90;;;;;;5074776;28;20981;-70
2022/03/10 11:41:24;;;;;;;12.53;11.50;;;16.70;99.90;;;;;;5074213;28;20622;-70
2022/03/10 11:44:02;;;;;;;12.30;11.10;;;16.80;99.90;;;;;;5074669;28;20590;-70
2022/03/10 11:46:31;;;;;;;12.97;11.67;;;16.80;99.90;;;;;;5074930;28;20614;-70
2022/03/10 11:49:03;;;;;;;14.53;12.10;;;16.80;99.90;;;;;;5074438;28;20614;-70
2022/03/10 11:51:46;;;;;;;13.30;11.30;;;17.30;99.90;;;;;;5074245;28;20610;-70
2022/03/10 11:54:27;;;;;;;13.00;11.80;;;17.20;99.90;;;;;;5074266;28;21004;-71
2022/03/10 11:56:54;;;;;;;17.90;11.90;;;17.40;99.90;;;;;;5074321;28;20574;-70
2022/03/10 11:59:34;;;;;;;12.37;11.40;;;17.70;99.90;;;;;;5073720;28;20610;-70
2022/03/10 12:02:02;;;;;;;12.27;11.07;;;16.50;99.90;;;;;;5074013;28;20622;-71
2022/03/10 12:04:37;;;;;;;11.60;10.53;;;16.80;99.90;;;;;;5074717;28;20618;-70
2022/03/10 12:07:05;;;;;;;10.73;9.73;;;17.40;99.90;;;;;;5072923;28;20759;-69
2022/03/10 12:09:34;;;;;;;10.18;8.88;;;17.80;99.90;;;;;;5072572;28;20745;-70
2022/03/10 12:12:25;;;;;;;10.67;9.77;;;18.20;99.90;;;;;;5072947;28;20200;-70
2022/03/10 12:14:55;;;;;;;10.40;9.30;;;18.20;99.90;;;;;;5072866;28;20691;-69
2022/03/10 12:17:55;;;;;;;10.87;9.97;;;17.70;99.90;;;;;;5071450;28;20611;-69
2022/03/10 12:20:25;;;;;;;18.70;11.00;;;18.20;99.90;;;;;;5073001;28;20617;-70
2022/03/10 12:23:09;;;;;;;10.83;9.87;;;18.00;99.90;;;;;;5073145;28;20574;-69
2022/03/10 12:25:47;;;;;;;10.50;9.70;;;17.80;99.90;;;;;;5073291;28;20685;-69
2022/03/10 12:28:38;;;;;;;9.68;8.88;;;18.20;99.90;;;;;;5073100;28;21107;-68
2022/03/10 12:31:07;;;;;;;17.13;10.33;;;17.80;99.90;;;;;;5072959;28;20198;-69
2022/03/10 12:33:39;;;;;;;10.90;9.90;;;18.20;99.90;;;;;;5072979;28;20619;-68
2022/03/10 12:36:05;;;;;;;11.07;9.97;;;18.70;99.90;;;;;;5071457;28;20678;-68
2022/03/10 12:38:41;;;;;;;11.13;10.23;;;19.10;99.90;;;;;;5071313;28;21206;-69
2022/03/10 12:41:08;;;;;;;11.07;9.90;;;19.00;99.90;;;;;;5073200;28;20692;-69
2022/03/10 12:43:35;;;;;;;10.13;9.30;;;18.00;99.90;;;;;;5072965;28;20967;-68
2022/03/10 12:46:02;;;;;;;11.57;10.27;;;17.40;99.90;;;;;;5072872;28;20615;-69